createdAt,value
2018-05-07T00:02:15.817Z,2.27
2018-05-07T00:04:44.629Z,2.00
2018-05-07T00:07:13.005Z,2.10
2018-05-07T00:09:40.683Z,2.27
2018-05-07T00:12:08.109Z,2.50
2018-05-07T00:14:35.607Z,2.70
2018-05-07T00:17:03.153Z,1.73
2018-05-07T00:19:30.655Z,2.40
2018-05-07T00:21:58.215Z,2.80
2018-05-07T00:24:26.321Z,1.73
2018-05-07T00:26:53.940Z,4.23
2018-05-07T00:29:21.552Z,3.73
2018-05-07T00:31:49.136Z,8.87
2018-05-07T00:34:17.456Z,9.20
2018-05-07T00:36:45.021Z,6.97
2018-05-07T00:39:12.883Z,3.90
2018-05-07T00:41:40.488Z,4.33
2018-05-07T00:44:08.062Z,3.30
2018-05-07T00:46:35.620Z,2.80
2018-05-07T00:49:03.272Z,2.57
2018-05-07T00:51:30.874Z,2.43
2018-05-07T00:53:58.478Z,3.00
2018-05-07T00:59:16.555Z,2.40
2018-05-07T01:01:45.174Z,2.90
2018-05-07T01:04:12.753Z,1.77
2018-05-07T01:06:40.337Z,2.17
2018-05-07T01:09:07.951Z,1.90
2018-05-07T01:11:35.643Z,2.40
2018-05-07T01:14:03.211Z,2.70
2018-05-07T01:16:30.813Z,2.80
2018-05-07T01:18:58.417Z,2.47
2018-05-07T01:21:26.013Z,2.07
2018-05-07T01:23:53.616Z,2.27
2018-05-07T01:26:21.220Z,2.20
2018-05-07T01:28:48.810Z,2.40
2018-05-07T01:31:16.367Z,2.43
2018-05-07T01:33:43.934Z,2.20
2018-05-07T01:36:11.546Z,2.60
2018-05-07T01:38:39.080Z,2.80
2018-05-07T01:41:06.917Z,2.47
2018-05-07T01:43:34.483Z,2.40
2018-05-07T01:46:02.076Z,2.47
2018-05-07T01:48:29.643Z,2.13
2018-05-07T01:50:57.191Z,1.90
2018-05-07T01:53:24.951Z,2.30
2018-05-07T01:55:52.576Z,1.93
2018-05-07T01:58:20.201Z,2.70
2018-05-07T02:00:47.798Z,2.30
2018-05-07T02:03:16.024Z,2.77
2018-05-07T02:05:43.619Z,2.40
2018-05-07T02:08:11.213Z,2.90
2018-05-07T02:10:38.843Z,2.20
2018-05-07T02:13:06.484Z,2.67
2018-05-07T02:15:34.065Z,2.40
2018-05-07T02:18:01.655Z,2.87
2018-05-07T02:20:29.241Z,2.40
2018-05-07T02:22:56.823Z,2.37
2018-05-07T02:25:24.467Z,2.10
2018-05-07T02:27:52.027Z,2.57
2018-05-07T02:30:19.579Z,2.03
2018-05-07T02:32:47.204Z,2.03
2018-05-07T02:35:14.705Z,2.37
2018-05-07T02:37:42.268Z,3.00
2018-05-07T02:40:09.898Z,2.10
2018-05-07T02:42:37.429Z,2.80
2018-05-07T02:45:05.021Z,2.40
2018-05-07T02:47:32.594Z,2.47
2018-05-07T02:50:00.171Z,2.77
2018-05-07T02:52:27.935Z,2.77
2018-05-07T02:54:55.504Z,2.90
2018-05-07T02:57:23.182Z,2.70
2018-05-07T02:59:50.729Z,3.47
2018-05-07T03:02:18.309Z,3.87
2018-05-07T03:04:45.912Z,3.50
2018-05-07T03:07:13.971Z,3.63
2018-05-07T03:09:41.923Z,3.10
2018-05-07T03:12:09.926Z,3.23
2018-05-07T03:14:37.837Z,3.30
2018-05-07T03:17:05.437Z,2.87
2018-05-07T03:19:33.252Z,3.27
2018-05-07T03:22:00.815Z,2.60
2018-05-07T03:24:28.458Z,2.60
2018-05-07T03:26:56.063Z,2.70
2018-05-07T03:29:23.802Z,3.17
2018-05-07T03:31:51.372Z,3.27
2018-05-07T03:34:18.951Z,4.83
2018-05-07T03:36:46.522Z,9.40
2018-05-07T03:42:04.164Z,4.10
2018-05-07T03:44:31.781Z,4.93
2018-05-07T03:46:59.359Z,3.17
2018-05-07T03:49:26.945Z,2.90
2018-05-07T03:51:54.533Z,3.73
2018-05-07T03:54:22.107Z,3.23
2018-05-07T03:56:49.767Z,2.87
2018-05-07T03:59:17.335Z,3.23
2018-05-07T04:01:44.906Z,3.30
2018-05-07T04:04:12.505Z,2.73
2018-05-07T04:06:40.981Z,2.57
2018-05-07T04:09:08.520Z,2.40
2018-05-07T04:11:36.103Z,2.40
2018-05-07T04:14:03.766Z,2.97
2018-05-07T04:16:43.138Z,3.07
2018-05-07T04:19:22.618Z,2.53
2018-05-07T04:22:02.053Z,3.17
2018-05-07T04:24:29.621Z,2.40
2018-05-07T04:26:57.162Z,2.90
2018-05-07T04:29:24.809Z,2.43
2018-05-07T04:31:52.422Z,3.70
2018-05-07T04:34:20.011Z,3.50
2018-05-07T04:36:47.607Z,2.97
2018-05-07T04:39:15.157Z,3.60
2018-05-07T04:41:42.734Z,3.10
2018-05-07T04:44:10.292Z,3.40
2018-05-07T04:46:37.945Z,2.80
2018-05-07T04:49:05.484Z,2.90
2018-05-07T04:51:33.147Z,3.23
2018-05-07T04:54:00.737Z,2.80
2018-05-07T04:56:28.336Z,2.60
2018-05-07T04:58:55.963Z,3.30
2018-05-07T05:01:23.533Z,2.90
2018-05-07T05:03:51.135Z,2.70
2018-05-07T05:06:18.794Z,2.77
2018-05-07T05:08:46.331Z,4.50
2018-05-07T05:11:13.913Z,2.43
2018-05-07T05:13:41.516Z,2.97
2018-05-07T05:16:09.090Z,3.67
2018-05-07T05:18:36.657Z,4.00
2018-05-07T05:21:04.378Z,2.70
2018-05-07T05:23:31.857Z,2.87
2018-05-07T05:25:59.377Z,3.07
2018-05-07T05:28:26.879Z,3.10
2018-05-07T05:30:54.482Z,3.03
2018-05-07T05:33:22.069Z,2.90
2018-05-07T05:35:49.710Z,3.20
2018-05-07T05:38:17.346Z,2.40
2018-05-07T05:40:44.958Z,2.40
2018-05-07T05:43:12.584Z,2.50
2018-05-07T05:45:40.215Z,3.80
2018-05-07T05:48:07.906Z,2.40
2018-05-07T05:50:35.519Z,3.70
2018-05-07T05:53:03.093Z,2.60
2018-05-07T05:55:31.132Z,3.37
2018-05-07T05:57:58.763Z,2.33
2018-05-07T06:00:26.334Z,2.90
2018-05-07T06:02:54.010Z,2.30
2018-05-07T06:05:21.654Z,2.70
2018-05-07T06:07:49.197Z,3.20
2018-05-07T06:10:16.708Z,3.43
2018-05-07T06:12:44.282Z,2.37
2018-05-07T06:15:13.103Z,2.47
2018-05-07T06:17:41.078Z,3.20
2018-05-07T06:20:08.816Z,2.63
2018-05-07T06:22:36.407Z,2.80
2018-05-07T06:25:03.929Z,3.10
2018-05-07T06:27:31.501Z,2.70
2018-05-07T06:29:59.199Z,2.73
2018-05-07T06:32:26.744Z,2.70
2018-05-07T06:34:54.417Z,3.20
2018-05-07T06:37:22.696Z,2.70
2018-05-07T06:39:50.371Z,2.77
2018-05-07T06:42:17.936Z,2.90
2018-05-07T06:44:45.522Z,3.47
2018-05-07T06:47:13.109Z,3.50
2018-05-07T06:49:40.956Z,3.50
2018-05-07T06:52:08.710Z,2.30
2018-05-07T06:54:36.284Z,2.80
2018-05-07T06:57:03.867Z,2.73
2018-05-07T06:59:31.425Z,2.47
2018-05-07T07:01:59.030Z,2.20
2018-05-07T07:04:26.580Z,2.50
2018-05-07T07:06:54.086Z,2.43
2018-05-07T07:09:21.656Z,2.60
2018-05-07T07:11:49.235Z,2.50
2018-05-07T07:14:16.861Z,2.63
2018-05-07T07:16:44.434Z,3.00
2018-05-07T07:19:12.275Z,3.10
2018-05-07T07:21:39.972Z,2.90
2018-05-07T07:24:07.593Z,3.10
2018-05-07T07:26:35.269Z,3.23
2018-05-07T07:29:02.849Z,2.60
2018-05-07T07:31:30.445Z,2.63
2018-05-07T07:33:58.107Z,3.10
2018-05-07T07:36:25.612Z,2.27
2018-05-07T07:38:53.205Z,2.80
2018-05-07T07:41:21.368Z,2.87
2018-05-07T07:43:48.966Z,2.63
2018-05-07T07:46:16.593Z,2.70
2018-05-07T07:48:44.187Z,2.53
2018-05-07T07:51:11.832Z,2.90
2018-05-07T07:53:39.559Z,2.53
2018-05-07T07:56:07.111Z,2.53
2018-05-07T07:58:38.189Z,1.87
2018-05-07T08:01:05.730Z,2.80
2018-05-07T08:03:34.115Z,3.20
2018-05-07T08:06:01.716Z,2.63
2018-05-07T08:08:29.474Z,2.90
2018-05-07T08:10:57.071Z,2.87
2018-05-07T08:13:25.155Z,2.40
2018-05-07T08:15:52.802Z,2.30
2018-05-07T08:18:20.509Z,2.60
2018-05-07T08:20:48.076Z,3.30
2018-05-07T08:23:15.714Z,2.70
2018-05-07T08:25:43.276Z,2.60
2018-05-07T08:28:10.836Z,2.80
2018-05-07T08:30:38.464Z,1.93
2018-05-07T08:33:06.048Z,2.70
2018-05-07T08:35:34.120Z,2.63
2018-05-07T08:38:01.718Z,2.60
2018-05-07T08:40:29.333Z,2.87
2018-05-07T08:42:56.931Z,2.30
2018-05-07T08:45:24.528Z,2.63
2018-05-07T08:47:52.135Z,2.43
2018-05-07T08:50:19.759Z,2.90
2018-05-07T08:52:47.433Z,3.07
2018-05-07T08:55:14.945Z,2.53
2018-05-07T08:57:42.607Z,2.60
2018-05-07T09:00:10.192Z,2.87
2018-05-07T09:02:37.764Z,2.53
2018-05-07T09:05:05.358Z,2.97
2018-05-07T09:07:33.171Z,2.50
2018-05-07T09:10:00.861Z,3.40
2018-05-07T09:12:28.475Z,2.60
2018-05-07T09:14:56.116Z,2.30
2018-05-07T09:17:23.869Z,2.57
2018-05-07T09:19:51.452Z,2.60
2018-05-07T09:22:19.068Z,2.60
2018-05-07T09:24:46.731Z,3.10
2018-05-07T09:27:14.365Z,2.80
2018-05-07T09:29:42.025Z,3.30
2018-05-07T09:32:09.592Z,3.00
2018-05-07T09:34:37.368Z,2.77
2018-05-07T09:37:05.206Z,3.37
2018-05-07T09:39:33.109Z,2.67
2018-05-07T09:42:00.700Z,2.77
2018-05-07T09:44:28.467Z,2.37
2018-05-07T09:46:56.032Z,2.63
2018-05-07T09:49:23.645Z,2.77
2018-05-07T09:51:51.240Z,2.87
2018-05-07T09:54:18.807Z,2.40
2018-05-07T09:56:55.294Z,2.37
2018-05-07T09:59:22.858Z,2.33
2018-05-07T10:01:50.427Z,2.70
2018-05-07T10:04:18.045Z,2.87
2018-05-07T10:06:46.045Z,3.33
2018-05-07T10:09:13.645Z,2.13
2018-05-07T10:11:41.237Z,3.20
2018-05-07T10:14:08.847Z,3.10
2018-05-07T10:16:36.521Z,2.33
2018-05-07T10:19:04.136Z,2.47
2018-05-07T10:21:31.716Z,2.80
2018-05-07T10:23:59.289Z,2.30
2018-05-07T10:26:26.860Z,2.33
2018-05-07T10:28:54.489Z,2.33
2018-05-07T10:31:22.712Z,2.67
2018-05-07T10:33:50.296Z,2.30
2018-05-07T10:36:17.918Z,3.00
2018-05-07T10:38:45.513Z,2.30
2018-05-07T10:41:13.159Z,2.47
2018-05-07T10:43:40.778Z,2.40
2018-05-07T10:46:09.370Z,2.30
2018-05-07T10:48:37.076Z,2.10
2018-05-07T10:51:04.685Z,2.90
2018-05-07T10:53:32.255Z,2.23
2018-05-07T10:55:59.835Z,2.40
2018-05-07T10:58:27.495Z,2.17
2018-05-07T11:00:55.137Z,1.73
2018-05-07T11:03:22.741Z,2.00
2018-05-07T11:05:50.323Z,2.13
2018-05-07T11:08:17.954Z,2.80
2018-05-07T11:10:45.547Z,2.40
2018-05-07T11:13:13.275Z,1.90
2018-05-07T11:15:40.878Z,1.77
2018-05-07T11:18:08.468Z,2.00
2018-05-07T11:20:36.118Z,2.00
2018-05-07T11:23:03.641Z,1.77
2018-05-07T11:25:31.216Z,1.97
2018-05-07T11:27:58.813Z,2.30
2018-05-07T11:30:26.361Z,1.90
2018-05-07T11:32:53.965Z,1.73
2018-05-07T11:35:21.587Z,1.73
2018-05-07T11:37:49.226Z,2.17
2018-05-07T11:40:16.782Z,1.93
2018-05-07T11:42:44.338Z,2.77
2018-05-07T11:45:12.157Z,2.10
2018-05-07T11:47:39.726Z,1.93
2018-05-07T11:50:07.212Z,2.00
2018-05-07T11:52:34.840Z,2.00
2018-05-07T11:55:02.397Z,1.90
2018-05-07T11:57:30.101Z,1.83
2018-05-07T11:59:57.720Z,2.20
2018-05-07T12:02:34.520Z,1.90
2018-05-07T12:05:02.137Z,2.20
2018-05-07T12:07:29.706Z,2.00
2018-05-07T12:09:57.261Z,1.87
2018-05-07T12:12:24.831Z,2.00
2018-05-07T12:14:52.413Z,1.57
2018-05-07T12:17:19.999Z,1.80
2018-05-07T12:19:47.598Z,1.80
2018-05-07T12:22:15.203Z,2.10
2018-05-07T12:24:42.809Z,1.93
2018-05-07T12:27:11.134Z,2.20
2018-05-07T12:29:38.740Z,1.80
2018-05-07T12:32:06.329Z,1.70
2018-05-07T12:34:33.927Z,2.53
2018-05-07T12:37:01.523Z,2.13
2018-05-07T12:39:29.089Z,1.70
2018-05-07T12:41:56.667Z,2.17
2018-05-07T12:44:24.275Z,2.10
2018-05-07T12:46:51.844Z,2.10
2018-05-07T12:49:19.455Z,2.00
2018-05-07T12:51:47.107Z,1.53
2018-05-07T12:54:14.684Z,1.80
2018-05-07T12:56:42.268Z,1.70
2018-05-07T12:59:09.865Z,1.87
2018-05-07T13:01:37.443Z,2.30
2018-05-07T13:04:05.054Z,2.00
2018-05-07T13:06:32.637Z,1.77
2018-05-07T13:09:00.224Z,1.93
2018-05-07T13:11:27.853Z,2.13
2018-05-07T13:13:55.428Z,1.70
2018-05-07T13:16:23.022Z,2.30
2018-05-07T13:18:50.632Z,1.73
2018-05-07T13:21:18.314Z,1.77
2018-05-07T13:23:45.919Z,2.50
2018-05-07T13:26:13.537Z,1.87
2018-05-07T13:28:41.171Z,1.83
2018-05-07T13:31:08.760Z,1.93
2018-05-07T13:33:36.268Z,1.70
2018-05-07T13:36:03.846Z,1.53
2018-05-07T13:38:31.414Z,1.60
2018-05-07T13:40:58.989Z,2.47
2018-05-07T13:43:26.599Z,2.00
2018-05-07T13:45:54.189Z,2.50
2018-05-07T13:48:21.803Z,2.00
2018-05-07T13:50:49.488Z,1.67
2018-05-07T13:53:17.052Z,2.30
2018-05-07T13:55:44.611Z,1.60
2018-05-07T13:58:12.192Z,1.80
2018-05-07T14:00:39.774Z,2.07
2018-05-07T14:03:07.404Z,2.60
2018-05-07T14:05:38.224Z,1.70
2018-05-07T14:08:06.500Z,2.23
2018-05-07T14:10:34.079Z,1.90
2018-05-07T14:13:01.667Z,1.87
2018-05-07T14:15:29.243Z,1.70
2018-05-07T14:17:56.822Z,2.53
2018-05-07T14:20:24.455Z,2.63
2018-05-07T14:22:52.047Z,1.97
2018-05-07T14:25:19.637Z,1.80
2018-05-07T14:27:47.228Z,1.60
2018-05-07T14:30:14.837Z,2.30
2018-05-07T14:32:42.448Z,2.10
2018-05-07T14:35:10.099Z,2.93
2018-05-07T14:37:37.703Z,1.60
2018-05-07T14:40:05.307Z,1.50
2018-05-07T14:42:33.016Z,1.17
2018-05-07T14:45:00.628Z,2.17
2018-05-07T14:47:28.224Z,1.60
2018-05-07T14:49:55.870Z,2.03
2018-05-07T14:52:23.449Z,2.00
2018-05-07T14:54:51.034Z,1.67
2018-05-07T14:57:18.600Z,1.37
2018-05-07T14:59:46.172Z,1.37
2018-05-07T15:02:13.767Z,1.50
2018-05-07T15:04:41.401Z,1.47
2018-05-07T15:07:09.220Z,1.23
2018-05-07T15:09:36.848Z,1.10
2018-05-07T15:12:04.405Z,1.30
2018-05-07T15:14:32.051Z,1.50
2018-05-07T15:16:59.614Z,1.53
2018-05-07T15:19:27.205Z,1.33
2018-05-07T15:21:54.753Z,1.23
2018-05-07T15:24:22.375Z,1.30
2018-05-07T15:26:49.974Z,1.63
2018-05-07T15:29:17.655Z,1.40
2018-05-07T15:31:45.197Z,1.50
2018-05-07T15:34:12.807Z,1.53
2018-05-07T15:36:40.525Z,1.50
2018-05-07T15:39:08.113Z,1.23
2018-05-07T15:41:35.797Z,1.20
2018-05-07T15:44:03.395Z,1.70
2018-05-07T15:46:31.008Z,1.07
2018-05-07T15:48:58.589Z,1.80
2018-05-07T15:51:26.205Z,1.30
2018-05-07T15:53:53.801Z,1.60
2018-05-07T15:56:21.412Z,1.30
2018-05-07T15:58:48.959Z,1.77
2018-05-07T16:01:16.568Z,1.67
2018-05-07T16:03:44.209Z,2.10
2018-05-07T16:06:11.829Z,1.90
2018-05-07T16:08:39.409Z,1.80
2018-05-07T16:11:07.235Z,1.63
2018-05-07T16:13:34.942Z,1.67
2018-05-07T16:16:02.555Z,1.60
2018-05-07T16:18:30.181Z,1.50
2018-05-07T16:20:57.780Z,1.63
2018-05-07T16:23:25.399Z,1.53
2018-05-07T16:25:53.892Z,1.50
2018-05-07T16:28:21.521Z,2.03
2018-05-07T16:30:49.035Z,2.10
2018-05-07T16:33:16.588Z,1.67
2018-05-07T16:35:44.154Z,1.53
2018-05-07T16:38:11.759Z,1.40
2018-05-07T16:40:39.339Z,1.53
2018-05-07T16:43:06.973Z,2.17
2018-05-07T16:45:34.613Z,1.17
2018-05-07T16:48:02.222Z,1.57
2018-05-07T16:50:29.826Z,1.57
2018-05-07T16:52:57.401Z,1.60
2018-05-07T16:55:24.978Z,1.77
2018-05-07T16:57:52.578Z,1.57
2018-05-07T17:00:20.146Z,1.93
2018-05-07T17:02:47.721Z,1.93
2018-05-07T17:05:15.595Z,1.63
2018-05-07T17:07:43.203Z,2.00
2018-05-07T17:10:10.774Z,2.23
2018-05-07T17:12:38.361Z,1.90
2018-05-07T17:15:05.908Z,2.27
2018-05-07T17:17:33.426Z,2.40
2018-05-07T17:20:01.022Z,1.80
2018-05-07T17:22:28.573Z,2.30
2018-05-07T17:24:56.110Z,1.83
2018-05-07T17:27:23.641Z,1.70
2018-05-07T17:29:51.206Z,1.67
2018-05-07T17:32:18.711Z,1.77
2018-05-07T17:34:46.279Z,1.80
2018-05-07T17:37:13.895Z,2.37
2018-05-07T17:39:41.603Z,1.67
2018-05-07T17:42:09.267Z,2.20
2018-05-07T17:44:48.578Z,2.20
2018-05-07T17:47:27.922Z,2.30
2018-05-07T17:49:55.619Z,11.70
2018-05-07T17:52:23.231Z,10.13
2018-05-07T17:54:50.871Z,12.73
2018-05-07T17:57:18.468Z,16.10
2018-05-07T17:59:46.086Z,18.03
2018-05-07T18:02:13.696Z,10.50
2018-05-07T18:04:41.270Z,7.00
2018-05-07T18:07:08.976Z,5.40
2018-05-07T18:09:37.289Z,4.07
2018-05-07T18:12:06.854Z,2.87
2018-05-07T18:14:35.297Z,2.53
2018-05-07T18:17:04.359Z,2.30
2018-05-07T18:19:32.771Z,2.07
2018-05-07T18:22:02.708Z,3.23
2018-05-07T18:24:31.853Z,1.93
2018-05-07T18:26:59.886Z,2.20
2018-05-07T18:29:28.506Z,1.67
2018-05-07T18:31:56.169Z,2.30
2018-05-07T18:34:25.531Z,1.80
2018-05-07T18:36:55.417Z,1.70
2018-05-07T18:39:23.893Z,1.97
2018-05-07T18:41:52.696Z,1.57
2018-05-07T18:44:21.608Z,1.87
2018-05-07T18:46:49.459Z,2.50
2018-05-07T18:49:17.108Z,1.53
2018-05-07T18:51:44.843Z,1.43
2018-05-07T18:54:12.426Z,1.60
2018-05-07T18:56:40.060Z,2.23
2018-05-07T18:59:07.666Z,1.60
2018-05-07T19:01:35.241Z,1.90
2018-05-07T19:04:02.775Z,1.60
2018-05-07T19:06:30.405Z,2.03
2018-05-07T19:08:57.930Z,1.90
2018-05-07T19:11:25.584Z,2.23
2018-05-07T19:13:53.220Z,2.03
2018-05-07T19:16:20.851Z,2.63
2018-05-07T19:18:48.429Z,2.43
2018-05-07T19:21:16.051Z,2.20
2018-05-07T19:23:44.970Z,2.20
2018-05-07T19:26:13.728Z,1.60
2018-05-07T19:28:41.356Z,2.03
2018-05-07T19:31:09.168Z,2.00
2018-05-07T19:33:37.972Z,1.90
2018-05-07T19:36:05.706Z,1.73
2018-05-07T19:38:33.317Z,1.83
2018-05-07T19:41:00.968Z,1.63
2018-05-07T19:43:28.669Z,2.00
2018-05-07T19:45:56.393Z,1.60
2018-05-07T19:48:24.077Z,1.77
2018-05-07T19:50:51.656Z,2.37
2018-05-07T19:53:19.504Z,2.00
2018-05-07T19:55:47.239Z,2.10
2018-05-07T19:58:14.782Z,2.20
2018-05-07T20:00:42.552Z,2.17
2018-05-07T20:03:11.571Z,1.93
2018-05-07T20:05:41.702Z,2.00
2018-05-07T20:08:12.601Z,1.60
2018-05-07T20:10:40.177Z,2.13
2018-05-07T20:13:07.762Z,2.23
2018-05-07T20:15:35.330Z,1.43
2018-05-07T20:18:04.232Z,1.40
2018-05-07T20:20:31.916Z,2.43
2018-05-07T20:22:59.592Z,1.87
2018-05-07T20:25:28.891Z,2.07
2018-05-07T20:27:58.894Z,2.30
2018-05-07T20:30:26.776Z,1.90
2018-05-07T20:32:54.512Z,1.83
2018-05-07T20:35:22.222Z,2.27
2018-05-07T20:37:49.906Z,2.20
2018-05-07T20:40:17.596Z,2.23
2018-05-07T20:42:45.247Z,1.87
2018-05-07T20:45:12.848Z,1.93
2018-05-07T20:47:40.410Z,1.97
2018-05-07T20:50:07.988Z,1.90
2018-05-07T20:52:35.710Z,2.50
2018-05-07T20:55:03.440Z,1.90
2018-05-07T20:57:32.013Z,1.73
2018-05-07T20:59:59.504Z,1.43
2018-05-07T21:02:27.035Z,1.90
2018-05-07T21:04:54.531Z,2.27
2018-05-07T21:07:22.094Z,1.97
2018-05-07T21:09:50.880Z,1.90
2018-05-07T21:12:18.495Z,2.17
2018-05-07T21:14:46.094Z,2.43
2018-05-07T21:17:14.003Z,2.10
2018-05-07T21:19:42.036Z,2.17
2018-05-07T21:22:09.701Z,2.37
2018-05-07T21:24:37.331Z,2.10
2018-05-07T21:27:05.469Z,2.00
2018-05-07T21:29:33.484Z,2.10
2018-05-07T21:32:01.801Z,2.40
2018-05-07T21:34:29.864Z,2.00
2018-05-07T21:36:57.589Z,2.00
2018-05-07T21:39:25.524Z,2.40
2018-05-07T21:41:53.246Z,3.10
2018-05-07T21:44:21.611Z,3.00
2018-05-07T21:46:49.182Z,1.93
2018-05-07T21:49:17.900Z,2.50
2018-05-07T21:51:45.622Z,2.00
2018-05-07T21:54:13.378Z,2.20
2018-05-07T21:56:40.998Z,2.40
2018-05-07T21:59:08.654Z,1.73
2018-05-07T22:01:36.765Z,2.20
2018-05-07T22:04:04.451Z,2.50
2018-05-07T22:06:32.089Z,2.60
2018-05-07T22:09:04.072Z,2.10
2018-05-07T22:11:33.200Z,2.20
2018-05-07T22:14:02.320Z,1.90
2018-05-07T22:16:30.003Z,1.90
2018-05-07T22:18:57.583Z,2.33
2018-05-07T22:21:25.832Z,2.43
2018-05-07T22:23:53.452Z,2.00
2018-05-07T22:26:21.321Z,2.57
2018-05-07T22:28:49.079Z,2.23
2018-05-07T22:31:17.178Z,2.20
2018-05-07T22:33:44.967Z,3.50
2018-05-07T22:36:12.532Z,4.53
2018-05-07T22:38:40.078Z,4.47
2018-05-07T22:41:07.688Z,4.10
2018-05-07T22:43:35.371Z,4.90
2018-05-07T22:46:03.077Z,3.50
2018-05-07T22:48:30.734Z,2.97
2018-05-07T22:50:58.303Z,3.03
2018-05-07T22:53:26.651Z,1.80
2018-05-07T22:55:55.176Z,1.90
2018-05-07T22:58:22.754Z,1.70
2018-05-07T23:00:50.385Z,2.43
2018-05-07T23:03:17.958Z,2.37
2018-05-07T23:05:45.590Z,2.00
2018-05-07T23:08:13.184Z,2.00
2018-05-07T23:10:41.024Z,2.00
2018-05-07T23:13:08.859Z,1.97
2018-05-07T23:15:36.959Z,2.50
2018-05-07T23:18:04.549Z,2.13
2018-05-07T23:20:32.178Z,2.27
2018-05-07T23:22:59.857Z,2.13
2018-05-07T23:25:27.433Z,2.00
2018-05-07T23:27:55.264Z,2.40
2018-05-07T23:30:22.914Z,1.90
2018-05-07T23:32:50.489Z,2.53
2018-05-07T23:35:18.033Z,2.40
2018-05-07T23:37:45.521Z,2.40
2018-05-07T23:40:13.085Z,2.30
2018-05-07T23:42:40.624Z,2.17
2018-05-07T23:45:08.238Z,2.27
2018-05-07T23:47:35.921Z,2.00
2018-05-07T23:50:03.617Z,2.20
2018-05-07T23:52:31.178Z,2.07
2018-05-07T23:54:58.796Z,2.20
2018-05-07T23:57:26.636Z,2.20
2018-05-07T23:59:54.225Z,2.23
